This is the latest recevied weather packets stored in our database for station/object K6ALF. If no packets are shown the sender has not sent any weather packets the latest 10 day(s).
| Time | Temp. | Humidity | Pressure | Rain* | Wind** | Luminosity | Snow |
|---|---|---|---|---|---|---|---|
| 1778274920 | 26.11° C | 57% | 1015.6 hPa | 0 mm | - | - | - |
| 1778270452 | 24.44° C | 56% | 1016.3 hPa | 0 mm | - | - | - |
| 1778265920 | 22.22° C | 62% | 1017.1 hPa | 0 mm | - | - | - |
| 1778263221 | 21.11° C | 66% | 1017.3 hPa | 0 mm | - | - | - |
| 1778262353 | 20.56° C | 70% | 1017.2 hPa | 0 mm | - | - | - |
| 1778259619 | 18.89° C | 74% | 1017.3 hPa | 0 mm | - | - | - |
| 1778251519 | 14.44° C | 84% | 1017.1 hPa | 0 mm | - | - | - |
| 1778236251 | 14.44° C | 88% | 1015.9 hPa | 0 mm | - | - | - |
| 1778233521 | 14.44° C | 87% | 1015.8 hPa | 0 mm | - | - | - |
| 1778215521 | 22.22° C | 72% | 1014.8 hPa | 0 mm | - | - | - |
| 1778212820 | 24.44° C | 68% | 1014.3 hPa | 0 mm | - | - | - |
| 1778207518 | 28.33° C | 53% | 1013.6 hPa | 0 mm | - | - | - |
| 1778198420 | 28.33° C | 53% | 1014.3 hPa | 0 mm | - | - | - |
| 1778196620 | 27.78° C | 54% | 1014.4 hPa | 0 mm | - | - | - |
| 1778189419 | 26.67° C | 58% | 1016.2 hPa | 0 mm | - | - | - |
| 1778185824 | 25° C | 62% | 1016.9 hPa | 0 mm | - | - | - |
| 1778180420 | 22.78° C | 66% | 1017.9 hPa | 0 mm | - | - | - |
| 1778155219 | 14.44° C | 87% | 1017.7 hPa | 0 mm | - | - | - |
| 1778152551 | 15° C | 85% | 1017.6 hPa | 0 mm | - | - | - |
| 1778151619 | 15° C | 85% | 1017.5 hPa | 0 mm | - | - | - |
| 1778150720 | 15° C | 85% | 1017.4 hPa | 0 mm | - | - | - |
| 1778147119 | 15.56° C | 84% | 1017.5 hPa | 0 mm | - | - | - |
| 1778146219 | 15.56° C | 84% | 1017.5 hPa | 0 mm | - | - | - |
| 1778140819 | 16.67° C | 83% | 1017.7 hPa | 0 mm | - | - | - |
| 1778138119 | 17.78° C | 82% | 1017.7 hPa | 0 mm | - | - | - |
* Rain latest hour (hover to see other rain measurements)
** Current wind speed in m/s (hover to see current wind gust speed)